Time;durP1;ratioP1;P1;durP2;ratioP2;P2;SDS_P1;SDS_P2;PMS_P1;PMS_P2;Temp;Humidity;BMP_temperature;BMP_pressure;BME280_temperature;BME280_humidity;BME280_pressure;Samples;Min_cycle;Max_cycle;Signal;HPM_P1;HPM_P2
2022/01/19 00:02:13;;;;;;;6.80;1.23;;;20.40;72.80;;;;;;4977867;28;95384;-47
2022/01/19 00:04:45;;;;;;;7.32;1.58;;;20.50;72.40;;;;;;4977735;28;95859;-47
2022/01/19 00:07:18;;;;;;;4.32;1.40;;;20.50;71.90;;;;;;4976762;28;95966;-46
2022/01/19 00:09:51;;;;;;;7.85;0.95;;;20.40;71.90;;;;;;4978974;28;94955;-46
2022/01/19 00:12:25;;;;;;;4.50;0.90;;;20.40;71.90;;;;;;4979007;28;95190;-47
2022/01/19 00:14:56;;;;;;;5.68;0.93;;;20.50;71.70;;;;;;4978590;28;96015;-47
2022/01/19 00:17:28;;;;;;;4.55;1.30;;;20.50;71.20;;;;;;4977495;28;95362;-47
2022/01/19 00:20:00;;;;;;;6.40;1.25;;;20.50;71.20;;;;;;4978908;28;94926;-47
2022/01/19 00:22:34;;;;;;;3.95;1.02;;;20.60;71.80;;;;;;4978604;28;95285;-47
2022/01/19 00:25:07;;;;;;;3.25;0.90;;;20.60;71.00;;;;;;4978385;28;95848;-46
2022/01/19 00:27:39;;;;;;;7.45;1.08;;;20.60;71.50;;;;;;4978252;28;95813;-47
2022/01/19 00:30:14;;;;;;;7.03;1.23;;;20.70;70.70;;;;;;4978634;28;95160;-46
2022/01/19 00:32:47;;;;;;;4.60;1.30;;;20.90;70.00;;;;;;4976932;28;95327;-45
2022/01/19 00:35:19;;;;;;;2.80;1.00;;;20.90;69.80;;;;;;4976656;28;96672;-45
2022/01/19 00:37:52;;;;;;;3.92;1.00;;;21.00;69.40;;;;;;4978151;28;95223;-45
2022/01/19 00:40:23;;;;;;;5.75;1.10;;;21.00;69.40;;;;;;4978313;28;95096;-44
2022/01/19 00:42:58;;;;;;;4.20;1.27;;;21.10;69.40;;;;;;4978607;28;95040;-46
2022/01/19 00:45:31;;;;;;;2.92;1.30;;;21.10;69.00;;;;;;4980548;28;96154;-46
2022/01/19 00:48:24;;;;;;;4.38;1.15;;;21.20;69.60;;;;;;4980978;28;95227;-46
2022/01/19 00:50:58;;;;;;;4.43;1.05;;;21.30;68.70;;;;;;4982563;28;94983;-46
2022/01/19 00:53:32;;;;;;;6.15;1.25;;;21.30;68.30;;;;;;4982719;28;95154;-46
2022/01/19 00:56:06;;;;;;;3.70;1.00;;;21.40;68.50;;;;;;4982347;28;96421;-46
2022/01/19 00:58:38;;;;;;;2.17;1.10;;;21.40;68.10;;;;;;4981054;28;95795;-45
2022/01/19 01:01:10;;;;;;;7.10;1.35;;;21.50;68.20;;;;;;4981873;28;94993;-46
2022/01/19 01:03:43;;;;;;;3.45;1.38;;;21.60;67.60;;;;;;4981996;28;95302;-46
2022/01/19 01:06:22;;;;;;;3.00;1.15;;;21.80;66.30;;;;;;4981448;28;95127;-47
2022/01/19 01:08:54;;;;;;;5.38;1.48;;;21.90;66.30;;;;;;4980894;28;95708;-46
2022/01/19 01:11:35;;;;;;;4.07;1.27;;;21.90;66.60;;;;;;4981214;28;94965;-46
2022/01/19 01:16:58;;;;;;;6.32;1.02;;;22.00;60.30;;;;;;4979401;28;95872;-43
2022/01/19 01:19:31;;;;;;;5.18;1.13;;;22.00;66.70;;;;;;4979283;28;95186;-46
2022/01/19 01:22:05;;;;;;;5.78;1.40;;;22.10;66.40;;;;;;4979635;28;95087;-45
2022/01/19 01:24:39;;;;;;;5.97;1.45;;;22.20;66.40;;;;;;4980975;28;95325;-43
2022/01/19 01:27:14;;;;;;;2.65;0.77;;;22.30;65.30;;;;;;4980631;28;95882;-46
2022/01/19 01:29:46;;;;;;;3.58;1.20;;;22.40;64.90;;;;;;4980627;28;95462;-45
2022/01/19 01:32:19;;;;;;;6.40;1.70;;;22.40;65.00;;;;;;4979978;28;94953;-47
2022/01/19 01:34:52;;;;;;;4.55;1.10;;;22.40;64.80;;;;;;4981037;28;95178;-45
2022/01/19 01:37:23;;;;;;;3.95;1.23;;;22.50;65.10;;;;;;4978907;28;96527;-45
2022/01/19 01:39:58;;;;;;;2.15;0.75;;;22.50;58.60;;;;;;4979938;28;95436;-47
2022/01/19 01:42:32;;;;;;;4.00;1.08;;;22.50;64.80;;;;;;4979717;28;95024;-45
2022/01/19 01:45:13;;;;;;;2.45;1.10;;;22.50;64.80;;;;;;4980874;28;95361;-44
2022/01/19 01:47:50;;;;;;;2.20;1.02;;;22.50;64.90;;;;;;4979819;28;96412;-43
2022/01/19 01:53:27;;;;;;;2.78;0.80;;;22.60;65.00;;;;;;4980028;28;95295;-46
2022/01/19 01:56:10;;;;;;;2.20;0.80;;;22.70;64.70;;;;;;4981660;28;95242;-46
2022/01/19 01:58:45;;;;;;;1.80;1.17;;;22.80;64.80;;;;;;4980438;28;96516;-45
2022/01/19 02:01:30;;;;;;;1.88;1.05;;;22.80;64.80;;;;;;4977283;28;95228;-47
2022/01/19 02:04:11;;;;;;;4.95;0.95;;;22.90;64.10;;;;;;4980583;28;94998;-46
2022/01/19 02:07:23;;;;;;;4.68;1.40;;;23.00;64.40;;;;;;4980371;28;95308;-46
2022/01/19 02:10:03;;;;;;;4.40;0.95;;;23.10;64.90;;;;;;4979914;28;95306;-45
2022/01/19 02:23:57;;;;;;;5.65;1.33;;;22.90;63.50;;;;;;4979857;28;95178;-47
2022/01/19 02:26:46;;;;;;;3.03;1.08;;;22.80;64.10;;;;;;4978822;28;95076;-46
2022/01/19 02:29:57;;;;;;;4.13;1.30;;;22.80;63.30;;;;;;4980190;28;95268;-45
2022/01/19 02:40:38;;;;;;;3.53;1.23;;;22.90;63.70;;;;;;4979234;28;95320;-46
2022/01/19 02:43:20;;;;;;;2.67;1.08;;;22.80;63.70;;;;;;4979444;28;96440;-46
2022/01/19 02:51:38;;;;;;;5.18;1.30;;;22.80;63.80;;;;;;4980015;28;95198;-45
2022/01/19 02:54:19;;;;;;;2.78;1.10;;;22.80;63.80;;;;;;4980196;28;96047;-46
2022/01/19 02:56:54;;;;;;;4.38;1.05;;;22.80;62.90;;;;;;4977896;28;95384;-42
2022/01/19 03:08:54;;;;;;;5.78;1.23;;;22.80;61.40;;;;;;4977817;28;95413;-45
2022/01/19 03:11:24;;;;;;;3.40;1.02;;;22.70;60.80;;;;;;4979380;28;95036;-45
2022/01/19 03:13:56;;;;;;;4.22;1.00;;;22.80;60.90;;;;;;4962619;28;95373;-43
2022/01/19 03:16:30;;;;;;;4.22;1.20;;;22.80;60.60;;;;;;4978985;28;95955;-46
2022/01/19 03:19:03;;;;;;;3.25;1.08;;;22.80;60.30;;;;;;4977545;28;95410;-43
2022/01/19 03:21:38;;;;;;;7.40;1.23;;;22.90;60.70;;;;;;4979471;28;94980;-45
2022/01/19 03:24:12;;;;;;;4.28;1.25;;;23.00;59.70;;;;;;4979291;28;95313;-46
2022/01/19 03:26:45;;;;;;;3.03;1.20;;;23.00;59.60;;;;;;4978571;28;96195;-46
2022/01/19 03:29:35;;;;;;;2.93;1.33;;;23.00;59.60;;;;;;4978420;28;94981;-46
2022/01/19 03:32:07;;;;;;;5.22;1.27;;;23.10;52.50;;;;;;4978747;28;95129;-43
2022/01/19 03:34:40;;;;;;;6.55;1.42;;;23.00;58.90;;;;;;4977706;28;95468;-46
2022/01/19 03:37:13;;;;;;;4.03;1.52;;;23.00;59.80;;;;;;4978579;28;96555;-46
2022/01/19 03:39:45;;;;;;;3.45;0.73;;;23.00;59.40;;;;;;4978322;28;95678;-46
2022/01/19 03:42:16;;;;;;;;;;;23.00;58.10;;;;;;4979037;28;95384;-45
2022/01/19 03:44:50;;;;;;;4.32;1.30;;;23.00;58.50;;;;;;4980402;28;95241;-43
2022/01/19 03:47:26;;;;;;;5.80;1.83;;;22.90;58.20;;;;;;4977878;28;96033;-46
2022/01/19 03:49:59;;;;;;;3.20;1.20;;;22.90;59.00;;;;;;4978207;28;97358;-46
2022/01/19 03:52:34;;;;;;;3.88;1.48;;;22.90;57.80;;;;;;4980025;28;95093;-44
2022/01/19 03:55:08;;;;;;;4.13;1.63;;;22.80;58.10;;;;;;4980046;28;95273;-45
2022/01/19 03:57:40;;;;;;;4.05;1.08;;;22.80;58.10;;;;;;4979515;28;96151;-45
2022/01/19 04:00:14;;;;;;;7.53;1.27;;;22.80;57.80;;;;;;4978527;28;95562;-46
2022/01/19 04:02:48;;;;;;;3.10;1.13;;;22.90;58.20;;;;;;4976145;28;94996;-46
2022/01/19 04:05:38;;;;;;;3.70;1.40;;;22.90;57.50;;;;;;4978633;28;95271;-46
2022/01/19 04:08:09;;;;;;;5.68;1.38;;;22.80;57.40;;;;;;4978225;28;96525;-46
2022/01/19 04:10:39;;;;;;;;;;;22.90;58.60;;;;;;4979010;28;95513;-46
2022/01/19 04:13:44;;;;;;;4.38;1.40;;;22.90;57.60;;;;;;4980288;28;94944;-40
2022/01/19 04:16:01;;;;;;;3.83;1.38;;;22.90;57.50;;;;;;4978592;28;95360;-43
2022/01/19 04:18:35;;;;;;;5.10;1.40;;;23.00;57.40;;;;;;4979185;28;96111;-45
2022/01/19 04:21:07;;;;;;;4.22;1.02;;;23.10;56.70;;;;;;4981824;28;95198;-42
2022/01/19 04:23:39;;;;;;;5.25;1.23;;;23.00;55.80;;;;;;4982525;28;95037;-43
2022/01/19 04:26:12;;;;;;;3.15;1.23;;;23.10;57.00;;;;;;4982303;28;95046;-45
2022/01/19 04:28:46;;;;;;;3.30;1.02;;;23.20;56.60;;;;;;4981448;28;96445;-41
2022/01/19 04:31:19;;;;;;;2.83;0.90;;;23.10;55.80;;;;;;4981180;28;95564;-42
2022/01/19 04:33:53;;;;;;;5.32;1.17;;;23.20;55.50;;;;;;4981862;28;95071;-41
2022/01/19 04:36:34;;;;;;;2.75;0.80;;;23.20;55.70;;;;;;4980479;28;95418;-40
2022/01/19 05:04:29;;;;;;;2.92;1.05;;;23.40;53.90;;;;;;4981504;28;95524;-47
2022/01/19 05:07:17;;;;;;;2.53;0.80;;;23.50;53.80;;;;;;4981534;28;95029;-46
2022/01/19 05:15:37;;;;;;;2.17;0.77;;;23.60;53.30;;;;;;4939147;28;95800;-45
2022/01/19 05:18:13;;;;;;;5.93;1.40;;;23.50;52.80;;;;;;4923751;28;95066;-46
2022/01/19 05:20:48;;;;;;;7.10;1.58;;;23.60;53.20;;;;;;4964471;28;95345;-47
2022/01/19 05:23:39;;;;;;;10.35;1.95;;;23.70;53.50;;;;;;4977738;28;95166;-47
2022/01/19 05:26:12;;;;;;;5.60;1.60;;;23.80;53.30;;;;;;4980175;28;95568;-47
2022/01/19 05:28:45;;;;;;;5.25;1.45;;;23.70;52.90;;;;;;4980881;28;94973;-47
2022/01/19 05:31:18;;;;;;;6.70;2.08;;;23.70;52.90;;;;;;4979206;28;95492;-47
2022/01/19 05:33:50;;;;;;;2.20;0.93;;;23.80;53.40;;;;;;4980483;28;95255;-46
2022/01/19 05:36:23;;;;;;;6.72;1.23;;;23.80;52.90;;;;;;4980251;28;95392;-45
2022/01/19 05:39:12;;;;;;;2.80;1.25;;;23.90;53.30;;;;;;4978251;28;94850;-47
2022/01/19 05:42:04;;;;;;;4.78;1.33;;;23.90;52.80;;;;;;4980363;28;95297;-46
2022/01/19 05:44:36;;;;;;;5.45;1.33;;;23.90;52.90;;;;;;4979088;28;96166;-44
2022/01/19 05:47:08;;;;;;;5.72;1.90;;;23.90;52.20;;;;;;4979373;28;95128;-44
2022/01/19 05:49:43;;;;;;;4.22;1.20;;;23.90;53.30;;;;;;4982095;28;94916;-46
2022/01/19 05:52:19;;;;;;;3.80;1.00;;;24.10;53.80;;;;;;4965610;28;94900;-47
2022/01/19 05:54:51;;;;;;;6.53;1.40;;;24.20;53.60;;;;;;4981087;28;96043;-44
2022/01/19 05:57:24;;;;;;;2.85;1.10;;;24.30;54.00;;;;;;4981188;28;95454;-46
2022/01/19 05:59:56;;;;;;;4.28;1.30;;;24.40;54.10;;;;;;4979194;28;95041;-46
2022/01/19 06:02:33;;;;;;;2.85;1.30;;;24.40;54.10;;;;;;4978502;28;95120;-47
2022/01/19 06:05:06;;;;;;;4.72;1.42;;;24.50;54.10;;;;;;4979177;28;96131;-46
2022/01/19 06:08:12;;;;;;;3.58;0.93;;;24.50;54.00;;;;;;4980004;28;95880;-43
2022/01/19 06:10:56;;;;;;;4.22;1.30;;;24.60;54.30;;;;;;4979003;28;95032;-45
2022/01/19 06:13:29;;;;;;;4.15;1.33;;;24.60;54.30;;;;;;4980361;28;95306;-45
2022/01/19 06:16:01;;;;;;;6.05;1.77;;;24.60;54.50;;;;;;4980031;28;95881;-44
2022/01/19 06:18:34;;;;;;;1.83;0.82;;;24.60;54.00;;;;;;4979661;28;95904;-45
2022/01/19 06:21:07;;;;;;;6.10;1.25;;;24.60;54.70;;;;;;4980493;28;94960;-42
2022/01/19 06:23:43;;;;;;;7.95;1.60;;;24.70;54.30;;;;;;4980266;28;95372;-43
2022/01/19 06:26:19;;;;;;;3.58;1.20;;;24.80;54.10;;;;;;4979774;28;96601;-45
2022/01/19 06:28:52;;;;;;;4.65;1.40;;;24.80;53.40;;;;;;4978919;28;95656;-45
2022/01/19 06:31:24;;;;;;;4.32;1.02;;;24.80;54.30;;;;;;4980136;28;95005;-42
2022/01/19 06:33:56;;;;;;;3.17;1.02;;;24.90;54.80;;;;;;4980143;28;95282;-46
2022/01/19 06:36:43;;;;;;;10.13;1.77;;;24.80;52.70;;;;;;4978214;28;96071;-45
2022/01/19 06:39:35;;;;;;;7.70;1.92;;;24.60;51.80;;;;;;4975121;28;95548;-46
2022/01/19 06:42:09;;;;;;;5.03;1.88;;;24.50;51.80;;;;;;4978357;28;95381;-43
2022/01/19 06:44:43;;;;;;;4.90;1.27;;;24.40;51.40;;;;;;4979629;28;95332;-44
2022/01/19 06:47:20;;;;;;;2.80;1.10;;;24.30;51.20;;;;;;4979519;28;96094;-44
2022/01/19 06:49:55;;;;;;;5.93;1.67;;;24.40;50.90;;;;;;4980209;28;95413;-44
2022/01/19 06:52:48;;;;;;;9.55;1.70;;;24.30;50.60;;;;;;4980425;28;95022;-46
2022/01/19 06:55:21;;;;;;;4.82;1.00;;;24.20;50.90;;;;;;4980849;28;95348;-45
2022/01/19 06:57:54;;;;;;;3.20;1.08;;;24.20;50.40;;;;;;4978427;28;96038;-48
2022/01/19 07:00:45;;;;;;;;;;;24.10;50.50;;;;;;4980295;28;95112;-47
2022/01/19 07:03:26;;;;;;;5.07;1.85;;;24.10;50.70;;;;;;5013656;28;95040;-41
2022/01/19 07:06:11;;;;;;;3.45;0.90;;;24.10;50.80;;;;;;4980130;28;94972;-46
2022/01/19 07:09:00;;;;;;;3.67;1.02;;;24.10;50.70;;;;;;4978023;28;96726;-45
2022/01/19 07:11:36;;;;;;;3.15;0.93;;;24.00;50.50;;;;;;4978872;28;95746;-47
2022/01/19 07:14:12;;;;;;;6.15;1.55;;;24.00;50.50;;;;;;4979572;28;95051;-43
2022/01/19 07:16:45;;;;;;;3.42;1.40;;;24.00;44.60;;;;;;4979749;28;95107;-45
2022/01/19 07:19:18;;;;;;;3.05;1.00;;;23.90;50.80;;;;;;4978784;28;96575;-46
2022/01/19 07:21:53;;;;;;;1.77;0.95;;;23.80;50.90;;;;;;4977480;28;95451;-44
2022/01/19 07:24:25;;;;;;;4.00;1.30;;;23.80;50.80;;;;;;4977819;28;95834;-45
2022/01/19 07:26:57;;;;;;;3.75;1.15;;;23.80;51.00;;;;;;4977934;28;95340;-43
2022/01/19 07:29:30;;;;;;;6.60;1.65;;;23.80;50.80;;;;;;4977601;28;96252;-43
2022/01/19 07:32:03;;;;;;;3.17;1.52;;;23.80;51.20;;;;;;4977365;28;95489;-45
2022/01/19 07:34:35;;;;;;;5.75;1.60;;;23.70;52.00;;;;;;4979327;28;94920;-45
2022/01/19 07:37:11;;;;;;;3.63;1.00;;;23.70;51.70;;;;;;4978786;28;95329;-44
2022/01/19 07:39:44;;;;;;;7.88;1.58;;;23.80;52.10;;;;;;4978560;28;96078;-44
2022/01/19 07:42:17;;;;;;;4.63;1.15;;;23.70;52.10;;;;;;4978299;28;94913;-45
2022/01/19 07:45:13;;;;;;;2.97;0.85;;;23.70;52.10;;;;;;4975492;28;94962;-43
2022/01/19 07:48:05;;;;;;;2.70;1.10;;;23.70;52.20;;;;;;4967847;28;96306;-44
2022/01/19 07:50:57;;;;;;;5.72;1.30;;;23.70;52.10;;;;;;4976820;28;95683;-45
2022/01/19 07:53:57;;;;;;;3.08;1.20;;;23.70;52.00;;;;;;4976567;28;96165;-45
2022/01/19 07:56:49;;;;;;;3.53;0.80;;;23.60;52.00;;;;;;4979815;28;95512;-44
2022/01/19 07:59:48;;;;;;;2.70;1.13;;;23.60;52.00;;;;;;4954652;28;95097;-45
2022/01/19 08:02:20;;;;;;;6.15;1.73;;;23.50;52.40;;;;;;4977951;28;96429;-44
2022/01/19 08:05:30;;;;;;;8.30;3.05;;;23.50;52.60;;;;;;4956530;28;95389;-44
2022/01/19 08:08:03;;;;;;;4.22;1.60;;;23.50;53.00;;;;;;4941933;28;94996;-43
2022/01/19 08:10:35;;;;;;;4.22;2.22;;;23.20;52.70;;;;;;4968664;28;95370;-42
2022/01/19 08:13:07;;;;;;;9.43;3.50;;;23.10;52.90;;;;;;4977194;28;95034;-44
2022/01/19 08:15:39;;;;;;;8.95;3.65;;;23.10;53.00;;;;;;4978229;28;95900;-44
2022/01/19 08:18:12;;;;;;;10.35;4.40;;;23.10;54.00;;;;;;4977735;28;95173;-45
2022/01/19 08:20:45;;;;;;;8.68;4.45;;;23.10;53.70;;;;;;4978670;28;95333;-45
2022/01/19 08:23:19;;;;;;;11.93;4.32;;;23.10;54.10;;;;;;4977004;28;96006;-43
2022/01/19 08:25:58;;;;;;;12.82;9.57;;;23.10;53.80;;;;;;4976896;28;96038;-44
2022/01/19 08:28:30;;;;;;;29.80;23.27;;;23.10;54.00;;;;;;4978573;28;95017;-44
2022/01/19 08:31:02;;;;;;;40.30;31.90;;;23.10;54.30;;;;;;4977660;28;95308;-45
2022/01/19 08:33:57;;;;;;;34.95;28.90;;;23.10;55.40;;;;;;4976800;28;95891;-45
2022/01/19 08:36:49;;;;;;;24.55;18.17;;;23.10;55.50;;;;;;4976878;28;95610;-41
2022/01/19 08:39:30;;;;;;;29.92;24.15;;;23.00;55.10;;;;;;4975968;28;95005;-45
2022/01/19 08:42:02;;;;;;;27.75;23.50;;;23.00;55.80;;;;;;4975711;28;95270;-45
2022/01/19 08:44:35;;;;;;;25.83;15.15;;;23.00;55.70;;;;;;4976924;28;96431;-45
2022/01/19 08:47:24;;;;;;;17.90;11.30;;;22.70;55.90;;;;;;4977446;28;96183;-44
2022/01/19 08:50:12;;;;;;;;;;;22.60;55.90;;;;;;4977437;28;95136;-45
2022/01/19 08:53:07;;;;;;;10.55;7.53;;;22.60;56.90;;;;;;4980419;28;95264;-46
2022/01/19 08:55:47;;;;;;;12.55;8.13;;;22.60;56.30;;;;;;4978597;28;96149;-46
2022/01/19 08:58:21;;;;;;;9.13;6.32;;;22.70;57.20;;;;;;4978043;28;95430;-45
2022/01/19 09:00:54;;;;;;;8.00;4.63;;;22.70;57.00;;;;;;4978543;28;95041;-45
2022/01/19 09:03:28;;;;;;;10.70;5.45;;;22.70;50.20;;;;;;4978778;28;95345;-45
2022/01/19 09:06:01;;;;;;;12.35;4.72;;;22.80;57.20;;;;;;4979859;28;96063;-45
2022/01/19 09:08:34;;;;;;;6.30;3.80;;;22.60;57.30;;;;;;4981761;28;95769;-44
2022/01/19 09:11:11;;;;;;;8.00;3.75;;;22.50;57.20;;;;;;4981021;28;95045;-45
2022/01/19 09:13:44;;;;;;;6.28;3.08;;;22.60;57.10;;;;;;4981857;28;95285;-44
2022/01/19 09:16:18;;;;;;;4.15;2.85;;;22.30;57.40;;;;;;4963821;28;96151;-42
2022/01/19 09:18:51;;;;;;;5.78;2.20;;;22.40;57.40;;;;;;4980807;28;95726;-45
2022/01/19 09:21:23;;;;;;;4.60;2.45;;;22.50;57.20;;;;;;4979975;28;95085;-43
2022/01/19 09:23:56;;;;;;;6.65;2.30;;;22.50;57.00;;;;;;4981152;28;95192;-45
2022/01/19 09:26:30;;;;;;;4.05;1.83;;;22.50;57.20;;;;;;4979389;28;96860;-45
2022/01/19 09:29:01;;;;;;;3.13;1.50;;;22.50;57.30;;;;;;4980890;28;95676;-45
2022/01/19 09:31:39;;;;;;;7.18;2.25;;;22.30;57.00;;;;;;4980051;28;95150;-45
2022/01/19 09:34:14;;;;;;;4.57;1.65;;;22.30;57.30;;;;;;4980981;28;95343;-45
2022/01/19 09:36:47;;;;;;;6.85;2.00;;;22.20;57.10;;;;;;4980894;28;95937;-44
2022/01/19 09:39:27;;;;;;;3.72;1.50;;;22.20;57.20;;;;;;4980888;28;95177;-45
2022/01/19 09:42:00;;;;;;;5.55;1.13;;;22.10;57.40;;;;;;4979337;28;95045;-44
2022/01/19 09:44:33;;;;;;;4.15;1.38;;;22.10;57.30;;;;;;4981225;28;95027;-45
2022/01/19 09:47:07;;;;;;;5.82;1.58;;;22.10;57.20;;;;;;4980929;28;95317;-45
2022/01/19 09:49:39;;;;;;;4.88;1.10;;;21.80;57.70;;;;;;4981584;28;95283;-45
2022/01/19 09:52:12;;;;;;;6.07;1.25;;;22.00;57.80;;;;;;4981670;28;94991;-44
2022/01/19 09:54:45;;;;;;;7.10;1.50;;;21.90;57.20;;;;;;4982060;28;95177;-45
2022/01/19 09:57:19;;;;;;;3.22;0.95;;;21.90;57.80;;;;;;4980172;28;95903;-46
2022/01/19 09:59:53;;;;;;;4.20;0.98;;;21.70;57.50;;;;;;4978900;28;97367;-45
2022/01/19 10:02:25;;;;;;;3.95;1.20;;;21.90;57.80;;;;;;4978387;28;95290;-45
2022/01/19 10:05:09;;;;;;;3.05;1.15;;;21.60;57.80;;;;;;4981319;28;95158;-44
2022/01/19 10:07:42;;;;;;;2.67;1.00;;;21.50;58.30;;;;;;4980924;28;96224;-46
2022/01/19 10:10:16;;;;;;;2.80;0.85;;;21.40;58.10;;;;;;4979353;28;95845;-46
2022/01/19 10:18:29;;;;;;;4.18;0.95;;;21.40;58.80;;;;;;4980171;28;96468;-45
2022/01/19 10:21:12;;;;;;;4.65;1.10;;;21.20;58.60;;;;;;4978972;28;95223;-46
2022/01/19 10:23:51;;;;;;;2.55;0.80;;;21.30;58.90;;;;;;4980637;28;94961;-44
2022/01/19 10:26:31;;;;;;;5.20;1.52;;;21.20;58.80;;;;;;4980712;28;95070;-46
2022/01/19 10:29:05;;;;;;;4.35;0.90;;;21.10;58.50;;;;;;4978521;28;96532;-45
2022/01/19 10:31:41;;;;;;;3.13;0.90;;;21.10;58.00;;;;;;4979791;28;95771;-45
2022/01/19 10:34:21;;;;;;;1.65;0.80;;;20.80;59.30;;;;;;4979344;28;94953;-45
2022/01/19 10:37:02;;;;;;;10.60;1.20;;;20.80;59.50;;;;;;4979236;28;95207;-43
2022/01/19 10:39:49;;;;;;;3.58;1.33;;;20.80;59.20;;;;;;4979564;28;95857;-45
2022/01/19 10:42:23;;;;;;;3.15;0.90;;;20.70;59.70;;;;;;4977900;28;95937;-45
2022/01/19 10:45:05;;;;;;;7.03;1.13;;;20.40;60.30;;;;;;4980040;28;95045;-46
2022/01/19 10:47:53;;;;;;;3.80;1.15;;;20.30;60.40;;;;;;4979368;28;95341;-45
2022/01/19 10:50:29;;;;;;;5.72;1.08;;;20.40;60.50;;;;;;4980817;28;95113;-46
2022/01/19 10:53:07;;;;;;;6.38;1.40;;;20.20;59.90;;;;;;4980399;28;95746;-46
2022/01/19 10:55:45;;;;;;;6.30;1.27;;;20.00;61.00;;;;;;4979324;28;95058;-44
2022/01/19 10:58:17;;;;;;;3.63;1.00;;;19.80;61.40;;;;;;4980558;28;94759;-46
2022/01/19 11:00:55;;;;;;;6.95;1.20;;;19.80;61.50;;;;;;4980053;28;94980;-45
2022/01/19 11:03:29;;;;;;;5.60;1.60;;;19.90;62.50;;;;;;4979796;28;95715;-46
2022/01/19 11:06:02;;;;;;;5.18;1.02;;;19.70;61.40;;;;;;4980369;28;95146;-45
2022/01/19 11:08:40;;;;;;;1.63;1.20;;;19.80;61.80;;;;;;4979916;28;95347;-46
2022/01/19 11:11:16;;;;;;;4.30;0.88;;;19.60;61.90;;;;;;4979494;28;95177;-45
2022/01/19 11:13:55;;;;;;;3.58;1.10;;;19.80;62.40;;;;;;4979335;28;95757;-45
2022/01/19 11:16:31;;;;;;;6.35;1.10;;;19.80;63.10;;;;;;4978491;28;95019;-46
2022/01/19 11:19:03;;;;;;;4.63;1.02;;;19.70;62.20;;;;;;4979455;28;95313;-46
2022/01/19 11:21:47;;;;;;;5.00;1.17;;;19.60;61.60;;;;;;4979044;28;95844;-45
2022/01/19 11:24:34;;;;;;;6.72;1.52;;;19.50;62.60;;;;;;4979649;28;94958;-46
2022/01/19 11:27:07;;;;;;;3.13;0.77;;;19.50;63.30;;;;;;4979724;28;94981;-45
2022/01/19 11:29:40;;;;;;;5.63;1.20;;;19.80;62.90;;;;;;4979166;28;95157;-46
2022/01/19 11:32:21;;;;;;;2.78;0.85;;;19.60;56.50;;;;;;4976828;28;95846;-45
2022/01/19 11:34:54;;;;;;;6.85;2.00;;;19.70;63.30;;;;;;4978791;28;95279;-45
2022/01/19 11:37:47;;;;;;;6.57;1.48;;;19.60;63.50;;;;;;4979096;28;94972;-43
2022/01/19 11:40:23;;;;;;;3.90;0.80;;;19.70;62.90;;;;;;4977898;28;95265;-42
2022/01/19 11:43:21;;;;;;;3.22;0.70;;;19.70;62.20;;;;;;4978831;28;95858;-42
2022/01/19 11:45:54;;;;;;;5.43;1.38;;;19.50;64.00;;;;;;4977970;28;95829;-44
2022/01/19 11:48:35;;;;;;;2.92;1.00;;;19.60;63.80;;;;;;4980167;28;94951;-45
2022/01/19 11:51:29;;;;;;;3.22;0.88;;;19.80;63.40;;;;;;4978838;28;95332;-45
2022/01/19 11:54:13;;;;;;;5.22;0.90;;;19.80;63.00;;;;;;4979757;28;95894;-45
2022/01/19 11:57:09;;;;;;;4.78;1.20;;;19.90;63.30;;;;;;4979850;28;95877;-45
2022/01/19 12:00:11;;;;;;;2.35;1.00;;;19.80;62.80;;;;;;4975371;28;95151;-45
2022/01/19 12:02:50;;;;;;;7.00;1.30;;;19.90;63.30;;;;;;4978888;28;95392;-45
2022/01/19 12:05:42;;;;;;;4.85;0.98;;;19.90;63.20;;;;;;4978984;28;96611;-45
2022/01/19 12:08:27;;;;;;;5.90;1.60;;;19.90;63.30;;;;;;4978955;28;95877;-44
2022/01/19 12:11:28;;;;;;;2.70;0.63;;;19.90;63.20;;;;;;4979316;28;95028;-45
2022/01/19 12:14:11;;;;;;;4.10;0.88;;;19.90;63.50;;;;;;4979163;28;95222;-44
2022/01/19 12:16:58;;;;;;;3.38;0.90;;;19.90;63.30;;;;;;4977335;28;95875;-45
2022/01/19 12:19:40;;;;;;;4.78;1.23;;;19.90;63.60;;;;;;4978481;28;95734;-45
2022/01/19 12:22:22;;;;;;;5.45;1.20;;;19.80;63.30;;;;;;4977569;28;95296;-44
2022/01/19 12:25:09;;;;;;;4.18;1.63;;;19.50;64.20;;;;;;4979055;28;95061;-45
2022/01/19 12:27:50;;;;;;;4.03;0.95;;;19.60;64.30;;;;;;4978326;28;96051;-45
2022/01/19 12:30:31;;;;;;;3.90;1.17;;;19.50;64.10;;;;;;4977577;28;96335;-45
2022/01/19 12:33:07;;;;;;;6.57;1.60;;;19.40;64.20;;;;;;4978727;28;95017;-43
2022/01/19 12:35:44;;;;;;;5.10;1.10;;;19.60;64.40;;;;;;4977384;28;95358;-46
2022/01/19 12:38:30;;;;;;;7.90;1.52;;;19.60;64.40;;;;;;4978165;28;95979;-45
2022/01/19 12:41:02;;;;;;;4.93;1.23;;;19.50;64.30;;;;;;4979423;28;95223;-45
2022/01/19 12:43:37;;;;;;;2.58;0.93;;;19.50;64.50;;;;;;4980878;28;95138;-45
2022/01/19 12:46:13;;;;;;;4.53;1.13;;;19.50;64.40;;;;;;4982999;28;95151;-43
2022/01/19 12:48:50;;;;;;;5.15;1.30;;;19.50;64.50;;;;;;4982715;28;95870;-45
2022/01/19 12:51:41;;;;;;;3.75;1.10;;;19.60;64.60;;;;;;4982219;28;95304;-44
2022/01/19 12:54:16;;;;;;;3.50;0.95;;;19.50;64.30;;;;;;4982515;28;95112;-44
2022/01/19 12:57:03;;;;;;;2.95;1.05;;;19.50;64.90;;;;;;4983046;28;95016;-43
2022/01/19 12:59:36;;;;;;;6.68;1.33;;;19.40;64.60;;;;;;4981237;28;95828;-45
2022/01/19 13:02:08;;;;;;;2.13;1.30;;;19.40;58.20;;;;;;4979388;28;95766;-46
2022/01/19 13:04:39;;;;;;;;;;;19.30;65.30;;;;;;4982454;28;94965;-45
2022/01/19 13:07:26;;;;;;;7.82;2.30;;;19.10;65.40;;;;;;4984228;28;95118;-44
2022/01/19 13:15:39;;;;;;;9.52;1.83;;;18.80;66.90;;;;;;4982681;28;95066;-45
2022/01/19 13:18:15;;;;;;;3.28;1.20;;;18.90;66.50;;;;;;4980572;28;95291;-44
2022/01/19 13:20:53;;;;;;;9.23;1.30;;;18.60;67.50;;;;;;4980925;28;96111;-45
2022/01/19 13:23:26;;;;;;;3.97;1.42;;;18.70;67.60;;;;;;4980803;28;95709;-42
2022/01/19 13:26:10;;;;;;;4.80;1.10;;;18.80;67.50;;;;;;4981268;28;95025;-45
2022/01/19 13:28:41;;;;;;;6.93;1.35;;;18.90;67.10;;;;;;4981423;28;95550;-44
2022/01/19 13:31:14;;;;;;;3.38;1.20;;;18.70;67.00;;;;;;4980722;28;95852;-43
2022/01/19 13:34:02;;;;;;;5.43;1.10;;;18.70;68.00;;;;;;4980981;28;95770;-44
2022/01/19 13:36:37;;;;;;;5.40;1.52;;;18.70;68.30;;;;;;4981516;28;94834;-45
2022/01/19 13:39:09;;;;;;;5.13;1.70;;;18.60;67.50;;;;;;4981520;28;95171;-45
2022/01/19 13:41:45;;;;;;;8.98;1.52;;;18.70;68.30;;;;;;4980279;28;96478;-44
2022/01/19 13:44:29;;;;;;;4.50;1.23;;;18.50;67.80;;;;;;4980752;28;95826;-45
2022/01/19 13:47:11;;;;;;;3.28;1.42;;;18.40;68.50;;;;;;4980111;28;95020;-43
2022/01/19 13:49:55;;;;;;;5.05;1.52;;;18.30;68.60;;;;;;4981813;28;95254;-45
2022/01/19 13:52:27;;;;;;;5.97;1.45;;;18.40;69.10;;;;;;4981198;28;95081;-45
2022/01/19 13:55:01;;;;;;;4.68;1.25;;;18.40;69.10;;;;;;4980394;28;95001;-45
2022/01/19 13:57:38;;;;;;;2.95;1.13;;;18.50;68.60;;;;;;4981443;28;94996;-46
2022/01/19 14:00:19;;;;;;;5.13;1.17;;;18.30;67.80;;;;;;4980887;28;95231;-44
2022/01/19 14:03:03;;;;;;;7.57;1.25;;;18.30;68.70;;;;;;4979898;28;102610;-46
2022/01/19 14:05:40;;;;;;;3.42;1.10;;;18.30;69.20;;;;;;4980261;28;95820;-45
2022/01/19 14:08:13;;;;;;;5.22;1.20;;;18.20;69.40;;;;;;4980742;28;94981;-45
2022/01/19 14:10:50;;;;;;;4.72;1.30;;;18.40;69.80;;;;;;4980677;28;95170;-45
2022/01/19 14:13:37;;;;;;;4.75;1.23;;;18.50;70.00;;;;;;4979978;28;96533;-41
2022/01/19 14:16:28;;;;;;;2.60;1.20;;;18.70;69.80;;;;;;4962400;28;97266;-44
2022/01/19 14:19:13;;;;;;;2.50;0.80;;;19.20;62.30;;;;;;4979215;28;95109;-45
2022/01/19 14:22:07;;;;;;;5.13;1.02;;;19.30;69.00;;;;;;4980457;28;95305;-45
2022/01/19 14:24:45;;;;;;;3.15;0.98;;;19.30;68.30;;;;;;4978438;28;96854;-45
2022/01/19 14:27:41;;;;;;;5.20;1.33;;;19.40;68.30;;;;;;4978710;28;95421;-45
2022/01/19 14:30:24;;;;;;;3.72;0.75;;;19.60;68.20;;;;;;4980391;28;94981;-44
2022/01/19 14:33:15;;;;;;;2.22;1.00;;;19.80;62.20;;;;;;4980284;28;95035;-43
2022/01/19 14:35:51;;;;;;;2.95;0.80;;;19.80;67.70;;;;;;4979827;28;95671;-43
2022/01/19 14:38:44;;;;;;;3.88;0.80;;;19.80;67.20;;;;;;4979748;28;95243;-45
2022/01/19 14:41:27;;;;;;;2.22;1.02;;;19.90;67.30;;;;;;4979485;28;95289;-44
2022/01/19 14:44:05;;;;;;;3.13;0.65;;;20.10;67.00;;;;;;4979847;28;95183;-45
2022/01/19 14:46:54;;;;;;;2.85;0.95;;;20.20;66.50;;;;;;4978850;28;95902;-45
2022/01/19 14:49:28;;;;;;;5.60;1.17;;;20.10;65.80;;;;;;4979497;28;95189;-44
2022/01/19 14:52:00;;;;;;;2.25;0.90;;;20.20;65.90;;;;;;4981217;28;95263;-43
2022/01/19 14:54:32;;;;;;;3.67;0.80;;;20.20;66.30;;;;;;4980909;28;95084;-45
2022/01/19 14:57:07;;;;;;;2.95;0.70;;;20.40;65.90;;;;;;4979374;28;95394;-45
2022/01/19 14:59:41;;;;;;;2.75;1.08;;;20.50;65.30;;;;;;4979412;28;94941;-44
2022/01/19 15:02:13;;;;;;;5.43;1.23;;;20.40;65.40;;;;;;4975325;28;95439;-44
2022/01/19 15:04:45;;;;;;;4.28;0.98;;;20.10;65.10;;;;;;4962924;28;95224;-46
2022/01/19 15:07:17;;;;;;;5.22;1.20;;;20.30;64.20;;;;;;4978472;28;95015;-46